• Join FlightAware (Why Join?)
  • Login
  • US Flag 
05:20AM EST


 

Airport Tracker/Info


-or-


 

Live Flight TrackerFlight Track Log ✈ N715CD ✈ 2014年 08月 16日 ✈ KFSD - KIDP

Flight Track Log - Related Links

Times and Time Zones

All times are in EDT time to prevent confusion due to time zone crossing. See the N715CD flight status page for this flight to view local times or setup timezone preferences in your user account.

Time Position Orientation Groundspeed Altitude Reporting Facility
EDT Latitude Longitude Course Direction KTS MPH feet Rate Location/Type
12:06PM 43.5019 -96.7239 171° South 134 154 2,900  Level Minneapolis Center
12:07PM 43.4644 -96.7192 175° South 137 158 3,700 720 Climbing Minneapolis Center
12:08PM 43.4175 -96.7106 172° South 138 159 4,500 660 Climbing Minneapolis Center
12:09PM 43.3794 -96.7042 173° South 139 160 5,100 600 Climbing Minneapolis Center
12:10PM 43.2879 -96.6935 173° South  Level Estimated
12:10PM 43.3406 -96.6983 174° South 139 160 5,800  Level Minneapolis Center
12:11PM 43.2391 -96.6833 171° South  Level FlightAware Approximate
12:11PM 43.3028 -96.6917 173° South 139 160 6,500  Level Minneapolis Center
12:12PM 43.2639 -96.6853 173° South 139 160 7,100 660 Climbing Minneapolis Center
12:13PM 43.2169 -96.6792 175° South 139 160 7,900 600 Climbing Minneapolis Center
12:14PM 43.1772 -96.6708 171° South 140 161 8,400 480 Climbing Minneapolis Center
12:15PM 43.1369 -96.6639 173° South 142 163 8,900 240 Climbing Minneapolis Center
12:16PM 43.0944 -96.6578 174° South 148 170 9,000  Climbing Minneapolis Center
12:17PM 43.0472 -96.6494 173° South 163 188 9,000  Level Minneapolis Center
12:18PM 42.9906 -96.6397 173° South 168 193 9,000  Level Minneapolis Center
12:19PM 42.9439 -96.6300 171° South 169 194 9,000  Level Minneapolis Center
12:20PM 42.8961 -96.6239 175° South 169 194 9,000  Level Minneapolis Center
12:21PM 42.8472 -96.6189 176° South 170 196 9,000  Level Minneapolis Center
12:22PM 42.7992 -96.6106 173° South 170 196 9,000  Level Minneapolis Center
12:23PM 42.7503 -96.6022 173° South 172 198 9,000  Level Minneapolis Center
12:24PM 42.6928 -96.5919 173° South 172 198 9,000  Level Minneapolis Center
12:25PM 42.6442 -96.5844 174° South 173 199 9,000  Level Minneapolis Center
12:26PM 42.5956 -96.5767 173° South 173 199 9,000  Level Minneapolis Center
12:27PM 42.5464 -96.5706 175° South 173 199 9,000  Level Minneapolis Center
12:29PM 42.4975 -96.5636 174° South 173 199 9,000  Level Minneapolis Center
12:30PM 42.4500 -96.5561 173° South 173 199 9,000  Level Minneapolis Center
12:31PM 42.3933 -96.5436 171° South 173 199 9,000  Level Minneapolis Center
12:32PM 42.3442 -96.5361 174° South 173 199 9,000  Level Minneapolis Center
12:33PM 42.2953 -96.5300 175° South 174 200 9,000  Level Minneapolis Center
12:34PM 42.2461 -96.5203 172° South 174 200 9,000  Level Minneapolis Center
12:35PM 42.1964 -96.5133 174° South 175 201 9,000  Level Minneapolis Center
12:36PM 42.1464 -96.5069 175° South 175 201 9,000  Level Minneapolis Center
12:37PM 42.0872 -96.4967 173° South 176 203 9,000  Level Minneapolis Center
12:38PM 42.0378 -96.4900 174° South 176 203 9,000  Level Minneapolis Center
12:39PM 41.9886 -96.4814 173° South 176 203 9,000  Level Minneapolis Center
12:40PM 41.9386 -96.4739 174° South 176 203 9,000  Level Minneapolis Center
12:40PM 41.9081 -96.4892 200° South 182 209 9,000  Level Minneapolis Center
12:41PM 41.8656 -96.4797 171° South 181 208 9,000  Level Minneapolis Center
12:42PM 41.8278 -96.4550 154° Southeast 180 207 9,000  Level Minneapolis Center
12:43PM 41.7661 -96.4625 185° South 182 209 9,000  Level Minneapolis Center
12:44PM 41.7267 -96.4397 157° South 180 207 9,000  Level Minneapolis Center
12:45PM 41.6764 -96.4328 174° South 181 208 9,000  Level Minneapolis Center
12:46PM 41.6097 -96.4347 181° South 181 208 9,000  Level Minneapolis Center
12:47PM 41.5611 -96.4261 172° South 180 207 9,000  Level Minneapolis Center
12:48PM 41.5106 -96.4178 173° South 181 208 9,000  Level Minneapolis Center
12:49PM 41.4619 -96.4092 172° South 181 208 9,000  Level Minneapolis Center
12:50PM 41.4133 -96.4006 172° South 179 206 9,000  Level Minneapolis Center
12:51PM 41.3603 -96.3894 171° South 180 207 9,000  Level Minneapolis Center
12:52PM 41.3094 -96.3811 173° South 180 207 9,000  Level Minneapolis Center
12:52PM 41.3186 -96.3769 19° North 181 208 9,000  Level Minneapolis Center
12:53PM 41.2608 -96.3725 177° South 180 207 9,000  Level Minneapolis Center
12:53PM 41.2592 -96.3686 120° Southeast 181 208 9,000  Level Minneapolis Center
12:54PM 41.2103 -96.3642 176° South 179 206 9,000  Level Minneapolis Center
12:54PM 41.2097 -96.3603 101° East 181 208 9,000  Level Minneapolis Center
12:55PM 41.1594 -96.3558 176° South 182 209 9,000  Level Minneapolis Center
12:55PM 41.1597 -96.3533 82° East 181 208 9,000  Level Minneapolis Center
12:56PM 41.1089 -96.3464 174° South 181 208 9,000  Level Minneapolis Center
12:57PM 41.0558 -96.3369 172° South 183 211 9,000  Level Minneapolis Center
12:58PM 41.0589 -96.3381 345° North 181 208 9,000  Level Minneapolis Center
12:58PM 41.0050 -96.3286 172° South 183 211 9,000  Level Minneapolis Center
12:59PM 40.9986 -96.3292 184° South 181 208 9,000  Level Minneapolis Center
12:59PM 40.9564 -96.3200 171° South 184 212 9,000  Level Minneapolis Center
01:00PM 40.9483 -96.3197 179° South 181 208 9,000  Level Minneapolis Center
01:00PM 40.9058 -96.3117 172° South 184 212 9,000  Level Minneapolis Center
01:01PM 40.8964 -96.3131 186° South 182 209 9,000  Level Minneapolis Center
01:01PM 40.8550 -96.3036 170° South 184 212 9,000 -120 Level Minneapolis Center
01:02PM 40.8464 -96.3056 190° South 182 209 8,900  Descending Minneapolis Center
01:02PM 40.8000 -96.2931 168° South 183 211 9,000 60 Climbing Minneapolis Center
01:03PM 40.7956 -96.2978 219° Southwest 182 209 9,000  Level Minneapolis Center
01:03PM 40.7492 -96.2847 168° South 185 213 9,000  Level Minneapolis Center
01:04PM 40.7350 -96.2889 193° South 182 209 9,000  Level Minneapolis Center
01:04PM 40.6983 -96.2739 163° South 185 213 9,000  Level Minneapolis Center
01:05PM 40.6839 -96.2806 199° South 183 211 9,000  Level Minneapolis Center
01:06PM 40.6325 -96.2742 175° South 183 211 9,000  Level Minneapolis Center
01:07PM 40.5806 -96.2644 172° South 184 212 9,000  Level Minneapolis Center
01:08PM 40.5294 -96.2572 174° South 184 212 9,000  Level Minneapolis Center
01:09PM 40.4789 -96.2508 175° South 184 212 9,000  Level Minneapolis Center
01:10PM 40.4175 -96.2411 173° South 184 212 9,000  Level Minneapolis Center
01:11PM 40.3664 -96.2347 175° South 184 212 9,000  Level Minneapolis Center
01:12PM 40.3150 -96.2253 172° South 184 212 9,000  Level Minneapolis Center
01:13PM 40.2636 -96.2181 174° South 184 212 9,000  Level Minneapolis Center
01:14PM 40.2125 -96.2097 173° South 184 212 9,000  Level Minneapolis Center
01:15PM 40.1594 -96.2028 174° South 184 212 9,000  Level Minneapolis Center
01:16PM 40.0978 -96.1908 172° South 185 213 9,000  Level Minneapolis Center
01:17PM 40.0447 -96.1844 175° South 186 214 9,000  Level Minneapolis Center
01:18PM 39.9933 -96.1797 176° South 186 214 9,000  Level Minneapolis Center
01:19PM 39.9414 -96.1697 172° South 186 214 9,000  Level Minneapolis Center
01:20PM 39.8886 -96.1617 173° South 186 214 9,000  Level Minneapolis Center
01:21PM 39.8358 -96.1558 175° South 186 214 9,000  Level Minneapolis Center
01:22PM 39.7728 -96.1461 173° South 187 215 9,000  Level Minneapolis Center
01:23PM 39.7200 -96.1347 171° South 187 215 9,000  Level Minneapolis Center
01:24PM 39.6700 -96.1289 175° South 187 215 9,000  Level Minneapolis Center
01:25PM 39.6175 -96.1242 176° South 187 215 9,000  Level Minneapolis Center
01:27PM 39.5669 -96.1144 172° South 187 215 9,000  Level Minneapolis Center
01:28PM 39.5150 -96.1044 172° South 187 215 9,000  Level Minneapolis Center
01:29PM 39.4544 -96.1011 178° South 186 214 9,000  Level Minneapolis Center
01:30PM 39.4033 -96.0928 173° South 186 214 9,000  Level Minneapolis Center
01:31PM 39.3517 -96.0778 167° South 186 214 9,000  Level Minneapolis Center
01:32PM 39.2994 -96.0794 181° South 186 214 9,000  Level Minneapolis Center
01:33PM 39.2289 -96.0669 172° South 187 215 9,000  Level Kansas City Center
01:34PM 39.1764 -96.0603 174° South 187 215 9,000  Level Kansas City Center
01:35PM 39.1253 -96.0531 174° South 187 215 9,000  Level Kansas City Center
01:36PM 39.0636 -96.0442 174° South 187 215 9,000  Level Kansas City Center
01:37PM 39.0128 -96.0364 173° South 187 215 9,000  Level Kansas City Center
01:38PM 38.9622 -96.0292 174° South 187 215 9,000  Level Kansas City Center
01:39PM 38.9108 -96.0217 174° South 187 215 9,000  Level Kansas City Center
01:40PM 38.8600 -96.0147 174° South 186 214 9,000  Level Kansas City Center
01:41PM 38.8058 -96.0081 175° South 186 214 9,000  Level Kansas City Center
01:42PM 38.7492 -95.9989 173° South 186 214 9,000  Level Kansas City Center
01:43PM 38.6983 -95.9928 175° South 186 214 9,000  Level Kansas City Center
01:44PM 38.6478 -95.9861 174° South 186 214 9,000  Level Kansas City Center
01:46PM 38.5978 -95.9786 173° South 185 213 9,000  Level Kansas City Center
01:47PM 38.5483 -95.9708 173° South 182 209 9,000  Level Kansas City Center
01:48PM 38.4947 -95.9622 173° South 182 209 9,000  Level Kansas City Center
01:49PM 38.4500 -95.9544 172° South 181 208 9,000  Level Kansas City Center
01:50PM 38.3914 -95.9447 173° South 181 208 9,000  Level Kansas City Center
01:51PM 38.3431 -95.9364 172° South 180 207 9,000  Level Kansas City Center
01:52PM 38.2950 -95.9289 173° South 179 206 9,000  Level Kansas City Center
01:53PM 38.2461 -95.9208 173° South 178 205 9,000  Level Kansas City Center
01:54PM 38.1914 -95.9114 172° South 178 205 9,000 -180 Level Kansas City Center
01:55PM 38.1481 -95.9036 172° South 178 205 8,700 -420 Descending Kansas City Center
01:56PM 38.0958 -95.8956 173° South 184 212 8,200 -540 Descending Kansas City Center
01:57PM 38.0325 -95.8856 173° South 189 217 7,700 -540 Descending Kansas City Center
01:58PM 37.9789 -95.8775 173° South 190 219 7,200 -480 Descending Kansas City Center
01:59PM 37.9267 -95.8678 172° South 191 220 6,800 -480 Descending Kansas City Center
02:00PM 37.8731 -95.8572 171° South 193 222 6,300 -480 Descending Kansas City Center
02:01PM 37.8208 -95.8508 174° South 193 222 5,900 -540 Descending Kansas City Center
02:02PM 37.7592 -95.8372 170° South 191 220 5,300 -540 Descending Kansas City Center
02:03PM 37.7086 -95.8272 171° South 190 219 4,900 -420 Descending Kansas City Center
02:04PM 37.6594 -95.8208 174° South 183 211 4,500 -420 Descending Kansas City Center
02:05PM 37.6097 -95.8144 174° South 180 207 4,100 -300 Descending Kansas City Center
02:06PM 37.5611 -95.8067 173° South 180 207 4,000 -60 Descending Kansas City Center
02:07PM 37.5164 -95.8008 174° South 171 197 4,000  Level Kansas City Center
02:08PM 37.4725 -95.7911 170° South 165 190 4,000  Level Kansas City Center
02:09PM 37.4286 -95.7839 173° South 163 188 4,000  Level Kansas City Center
02:10PM 37.3844 -95.7783 174° South 163 188 4,000 -120 Level Kansas City Center
02:11PM 37.3306 -95.7719 175° South 163 188 3,800 -240 Descending Kansas City Center